Time;durP1;ratioP1;P1;durP2;ratioP2;P2;SDS_P1;SDS_P2;PMS_P1;PMS_P2;Temp;Humidity;BMP_temperature;BMP_pressure;BME280_temperature;BME280_humidity;BME280_pressure;Samples;Min_cycle;Max_cycle;Signal;HPM_P1;HPM_P2
2024/04/03 00:01:00;;;;;;;5.07;2.57;;;10.90;1.00;;;;;;5089907;27;20470;-74
2024/04/03 00:03:28;;;;;;;3.60;2.60;;;10.90;1.00;;;;;;5096130;27;20466;-75
2024/04/03 00:05:55;;;;;;;2.77;2.57;;;10.90;1.00;;;;;;5074695;27;20859;-74
2024/04/03 00:08:20;;;;;;;5.23;2.57;;;10.90;1.00;;;;;;5081860;27;20576;-74
2024/04/03 00:10:47;;;;;;;2.83;2.63;;;10.90;1.00;;;;;;5107277;27;20609;-74
2024/04/03 00:13:13;;;;;;;2.77;2.50;;;10.90;1.00;;;;;;5107028;27;20247;-73
2024/04/03 00:15:40;;;;;;;3.60;2.33;;;10.90;1.00;;;;;;5100240;27;20470;-74
2024/04/03 00:18:06;;;;;;;3.83;2.40;;;10.90;1.00;;;;;;5099935;27;20555;-72
2024/04/03 00:20:37;;;;;;;3.10;2.50;;;10.90;1.00;;;;;;5097153;27;20573;-74
2024/04/03 00:23:03;;;;;;;2.83;2.20;;;10.90;1.00;;;;;;5099358;27;20505;-74
2024/04/03 00:25:30;;;;;;;3.83;2.87;;;11.00;1.00;;;;;;5102917;27;20487;-75
2024/04/03 00:27:56;;;;;;;2.47;2.13;;;11.00;1.00;;;;;;5095386;27;20553;-72
2024/04/03 00:30:23;;;;;;;3.20;2.47;;;11.00;1.00;;;;;;5100768;27;20838;-71
2024/04/03 00:32:48;;;;;;;2.27;2.07;;;11.10;1.00;;;;;;5102537;27;20541;-70
2024/04/03 00:35:15;;;;;;;3.13;2.70;;;11.10;1.00;;;;;;5103831;27;20480;-71
2024/04/03 00:37:43;;;;;;;4.60;3.07;;;11.10;1.00;;;;;;5100417;27;20529;-71
2024/04/03 00:40:11;;;;;;;5.10;2.80;;;11.10;1.00;;;;;;5101440;27;20487;-71
2024/04/03 00:42:37;;;;;;;7.93;3.60;;;11.00;1.00;;;;;;5101253;27;20542;-71
2024/04/03 00:45:04;;;;;;;3.63;2.40;;;11.00;1.00;;;;;;5097603;27;20457;-72
2024/04/03 00:47:30;;;;;;;4.30;2.90;;;10.90;1.00;;;;;;5093094;27;20540;-71
2024/04/03 00:49:58;;;;;;;3.77;2.90;;;10.90;1.00;;;;;;5089569;27;20960;-71
2024/04/03 00:52:25;;;;;;;4.30;3.30;;;11.00;1.00;;;;;;5077821;27;20475;-71
2024/04/03 00:54:54;;;;;;;4.00;3.00;;;10.90;1.00;;;;;;5080750;27;20457;-74
2024/04/03 00:57:19;;;;;;;2.67;2.40;;;10.90;1.00;;;;;;5101403;27;20508;-70
2024/04/03 00:59:46;;;;;;;3.70;3.20;;;10.80;1.00;;;;;;5101926;27;20553;-70
2024/04/03 01:02:13;;;;;;;4.00;2.97;;;10.80;1.00;;;;;;5099938;27;20479;-75
2024/04/03 01:04:41;;;;;;;5.87;3.17;;;10.70;1.00;;;;;;5101581;27;20469;-70
2024/04/03 01:07:07;;;;;;;4.17;3.77;;;10.70;1.00;;;;;;5099631;27;20577;-71
2024/04/03 01:09:34;;;;;;;3.83;3.27;;;10.70;1.00;;;;;;5100998;27;21236;-70
2024/04/03 01:12:02;;;;;;;3.73;3.33;;;10.80;1.00;;;;;;5101134;27;20546;-71
2024/04/03 01:14:29;;;;;;;5.37;3.37;;;10.90;1.00;;;;;;5083812;28;20451;-72
2024/04/03 01:16:56;;;;;;;4.43;3.87;;;10.90;1.00;;;;;;5086729;27;20518;-73
2024/04/03 01:19:23;;;;;;;4.93;3.40;;;10.90;1.00;;;;;;5076760;27;21840;-73
2024/04/03 01:21:49;;;;;;;6.83;3.97;;;10.80;1.00;;;;;;5078364;28;20520;-70
2024/04/03 01:24:22;;;;;;;4.10;3.47;;;10.70;1.00;;;;;;5074337;28;20462;-70
2024/04/03 01:26:48;;;;;;;4.30;3.87;;;10.70;1.00;;;;;;5074963;27;20470;-73
2024/04/03 01:29:15;;;;;;;3.90;3.60;;;10.70;1.00;;;;;;5074884;28;21051;-72
2024/04/03 01:31:41;;;;;;;5.93;4.00;;;10.70;1.00;;;;;;5079942;28;20447;-72
2024/04/03 01:34:08;;;;;;;3.63;3.33;;;10.70;1.00;;;;;;5079236;27;20497;-71
2024/04/03 01:36:33;;;;;;;3.80;3.33;;;10.70;1.00;;;;;;5090111;27;20477;-73
2024/04/03 01:39:01;;;;;;;3.70;3.37;;;10.70;1.00;;;;;;5095820;27;20596;-74
2024/04/03 01:41:28;;;;;;;6.53;4.00;;;10.70;1.00;;;;;;5099375;27;20458;-73
2024/04/03 01:43:55;;;;;;;7.07;3.90;;;10.70;1.00;;;;;;5097696;27;20544;-72
2024/04/03 01:46:21;;;;;;;4.40;4.00;;;10.70;1.00;;;;;;5096524;27;20457;-71
2024/04/03 01:48:49;;;;;;;4.37;3.80;;;10.60;1.00;;;;;;5080801;28;22532;-70
2024/04/03 01:51:15;;;;;;;4.93;4.53;;;10.50;1.00;;;;;;5079564;28;20550;-73
2024/04/03 01:53:41;;;;;;;6.53;4.93;;;10.40;1.00;;;;;;5078625;28;20543;-71
2024/04/03 01:56:08;;;;;;;6.23;4.77;;;10.40;1.00;;;;;;5085799;27;20481;-71
2024/04/03 01:58:36;;;;;;;5.17;4.67;;;10.30;1.00;;;;;;5099640;27;20474;-72
2024/04/03 02:01:02;;;;;;;5.77;4.90;;;10.40;1.00;;;;;;5088019;27;20798;-70
2024/04/03 02:03:29;;;;;;;6.43;5.93;;;10.30;1.00;;;;;;5101617;27;20454;-72
2024/04/03 02:05:55;;;;;;;6.00;4.80;;;10.40;1.00;;;;;;5100169;27;20509;-71
2024/04/03 02:08:22;;;;;;;6.10;5.10;;;10.40;1.00;;;;;;5097523;27;21052;-71
2024/04/03 02:10:49;;;;;;;6.63;4.50;;;10.40;1.00;;;;;;5101861;27;20544;-71
2024/04/03 02:13:16;;;;;;;6.90;4.73;;;10.40;1.00;;;;;;5088329;27;20529;-71
2024/04/03 02:15:51;;;;;;;5.27;4.77;;;10.40;1.00;;;;;;5079567;27;20486;-72
2024/04/03 02:18:18;;;;;;;5.70;4.27;;;10.40;1.00;;;;;;5086025;27;20465;-75
2024/04/03 02:20:44;;;;;;;4.97;4.20;;;10.50;1.00;;;;;;5102600;27;20454;-72
2024/04/03 02:23:11;;;;;;;5.60;4.23;;;10.50;1.00;;;;;;5098556;27;20453;-71
2024/04/03 02:25:37;;;;;;;4.80;4.30;;;10.50;1.00;;;;;;5099456;27;20969;-70
2024/04/03 02:28:05;;;;;;;5.57;4.93;;;10.60;1.00;;;;;;5098441;27;20469;-71
2024/04/03 02:30:31;;;;;;;4.67;4.17;;;10.60;1.00;;;;;;5078799;27;21652;-69
2024/04/03 02:32:59;;;;;;;4.93;4.40;;;10.60;1.00;;;;;;5083633;28;20467;-70
2024/04/03 02:35:26;;;;;;;6.43;5.20;;;10.70;1.00;;;;;;5077362;28;20979;-71
2024/04/03 02:37:53;;;;;;;6.97;5.10;;;10.70;1.00;;;;;;5082113;28;20467;-71
2024/04/03 02:40:19;;;;;;;6.57;5.17;;;10.80;1.00;;;;;;5080504;28;20976;-71
2024/04/03 02:42:46;;;;;;;6.60;5.90;;;10.80;1.00;;;;;;5076044;27;20979;-74
2024/04/03 02:45:12;;;;;;;5.40;4.67;;;10.80;1.00;;;;;;5098049;27;20964;-77
2024/04/03 02:47:39;;;;;;;7.73;5.57;;;10.80;1.00;;;;;;5099471;27;20458;-76
2024/04/03 02:50:07;;;;;;;6.40;5.33;;;10.80;1.00;;;;;;5077457;27;20435;-72
2024/04/03 02:52:34;;;;;;;6.10;5.00;;;10.90;1.00;;;;;;5097201;27;21337;-75
2024/04/03 02:55:04;;;;;;;5.40;4.90;;;10.90;1.00;;;;;;5090034;27;20462;-76
2024/04/03 02:57:34;;;;;;;5.70;5.10;;;10.90;1.00;;;;;;5078833;28;21249;-75
2024/04/03 03:00:00;;;;;;;5.70;5.00;;;10.90;1.00;;;;;;5083283;28;20535;-75
2024/04/03 03:02:27;;;;;;;6.77;4.80;;;11.00;1.00;;;;;;5080852;28;20567;-75
2024/04/03 03:04:52;;;;;;;7.00;5.33;;;11.00;1.00;;;;;;5077915;27;20508;-74
2024/04/03 03:07:23;;;;;;;5.83;5.20;;;11.10;1.00;;;;;;5089620;27;20458;-75
2024/04/03 03:09:49;;;;;;;5.63;5.13;;;11.00;1.00;;;;;;5085508;27;21193;-74
2024/04/03 03:12:16;;;;;;;6.10;5.50;;;11.10;1.00;;;;;;5084616;27;20458;-75
2024/04/03 03:14:42;;;;;;;6.90;6.10;;;11.00;1.00;;;;;;5074982;27;20514;-76
2024/04/03 03:17:09;;;;;;;5.93;5.43;;;11.00;1.00;;;;;;5082324;27;20572;-75
2024/04/03 03:19:35;;;;;;;9.57;6.30;;;11.00;1.00;;;;;;5080181;28;21688;-75
2024/04/03 03:22:02;;;;;;;6.70;6.10;;;11.00;1.00;;;;;;5081236;28;20562;-75
2024/04/03 03:24:30;;;;;;;8.07;7.30;;;10.90;1.00;;;;;;5092655;27;20962;-75
2024/04/03 03:26:57;;;;;;;8.83;6.80;;;10.80;1.00;;;;;;5098603;27;20527;-75
2024/04/03 03:29:22;;;;;;;7.50;5.90;;;10.70;1.00;;;;;;5097205;27;20452;-75
2024/04/03 03:31:50;;;;;;;7.30;6.70;;;10.70;1.00;;;;;;5101685;27;20461;-77
2024/04/03 03:34:17;;;;;;;8.43;6.93;;;10.50;1.00;;;;;;5101657;27;20569;-75
2024/04/03 03:36:44;;;;;;;8.20;6.17;;;10.50;1.00;;;;;;5104679;27;20642;-76
2024/04/03 03:39:11;;;;;;;8.67;7.40;;;10.40;1.00;;;;;;5102623;27;20489;-75
2024/04/03 03:41:40;;;;;;;9.63;7.53;;;10.30;1.00;;;;;;5104063;27;20425;-77
2024/04/03 03:44:07;;;;;;;9.17;8.27;;;10.30;1.00;;;;;;5102130;27;20473;-74
2024/04/03 03:46:33;;;;;;;8.20;7.40;;;10.20;1.00;;;;;;5104086;27;20612;-75
2024/04/03 03:54:29;;;;;;;11.30;6.83;;;10.10;1.00;;;;;;5089955;27;20978;-75
2024/04/03 03:56:57;;;;;;;6.60;6.00;;;10.00;1.00;;;;;;5082093;27;22109;-75
2024/04/03 03:59:24;;;;;;;7.40;5.67;;;9.90;1.00;;;;;;5092870;27;20459;-75
2024/04/03 04:01:51;;;;;;;5.93;5.33;;;9.90;1.00;;;;;;5082186;27;20494;-76
2024/04/03 04:04:18;;;;;;;5.67;5.13;;;9.90;1.00;;;;;;5097807;27;20437;-75
2024/04/03 04:06:44;;;;;;;5.33;4.90;;;9.80;1.00;;;;;;5085666;27;20540;-73
2024/04/03 04:09:12;;;;;;;4.80;4.30;;;9.80;1.00;;;;;;5101817;27;20551;-75
2024/04/03 04:11:38;;;;;;;8.03;4.10;;;9.70;1.00;;;;;;5080190;27;20486;-74
2024/04/03 04:14:09;;;;;;;4.73;4.27;;;9.70;1.00;;;;;;5084904;27;20962;-75
2024/04/03 04:16:35;;;;;;;3.70;3.40;;;9.60;1.00;;;;;;5107653;27;20471;-77
2024/04/03 04:19:05;;;;;;;3.87;3.47;;;9.60;1.00;;;;;;5103345;27;20465;-75
2024/04/03 04:21:31;;;;;;;9.20;4.30;;;9.60;1.00;;;;;;5104591;27;20463;-74
2024/04/03 04:23:59;;;;;;;4.70;4.17;;;9.60;1.00;;;;;;5107280;27;20897;-74
2024/04/03 04:26:25;;;;;;;5.77;4.27;;;9.60;1.00;;;;;;5092835;27;20494;-73
2024/04/03 04:28:52;;;;;;;4.77;4.27;;;9.70;1.00;;;;;;5095656;27;20586;-73
2024/04/03 04:31:20;;;;;;;5.33;4.33;;;9.60;1.00;;;;;;5078724;27;20506;-73
2024/04/03 04:33:49;;;;;;;6.73;5.03;;;9.60;1.00;;;;;;5077455;28;20465;-73
2024/04/03 04:36:15;;;;;;;6.03;3.80;;;9.60;1.00;;;;;;5078949;27;21561;-73
2024/04/03 04:38:41;;;;;;;4.30;3.90;;;9.60;1.00;;;;;;5080514;27;20498;-73
2024/04/03 04:41:07;;;;;;;5.80;5.03;;;9.60;1.00;;;;;;5081502;28;20916;-73
2024/04/03 04:43:34;;;;;;;6.10;4.50;;;9.60;1.00;;;;;;5083040;28;20439;-73
2024/04/03 04:46:02;;;;;;;5.37;4.57;;;9.50;1.00;;;;;;5078045;27;20558;-73
2024/04/03 04:48:31;;;;;;;6.00;5.07;;;9.50;1.00;;;;;;5076248;27;20466;-73
2024/04/03 04:50:58;;;;;;;6.27;5.63;;;9.50;1.00;;;;;;5079660;27;20485;-73
2024/04/03 04:53:26;;;;;;;5.73;5.13;;;9.50;1.00;;;;;;5082698;27;20451;-74
2024/04/03 04:55:55;;;;;;;7.33;5.30;;;9.50;1.00;;;;;;5079664;28;20475;-76
2024/04/03 04:58:23;;;;;;;5.30;4.80;;;9.50;1.00;;;;;;5090668;27;20447;-73
2024/04/03 05:00:50;;;;;;;5.23;4.67;;;9.50;1.00;;;;;;5079922;28;20512;-73
2024/04/03 05:03:17;;;;;;;12.20;9.30;;;9.50;1.00;;;;;;5086572;27;22500;-74
2024/04/03 05:05:44;;;;;;;8.10;5.40;;;9.50;1.00;;;;;;5100366;27;20459;-74
2024/04/03 05:08:11;;;;;;;5.47;4.90;;;9.50;1.00;;;;;;5082260;27;20942;-73
2024/04/03 05:10:37;;;;;;;6.47;5.50;;;9.60;1.00;;;;;;5087208;28;20535;-73
2024/04/03 05:13:05;;;;;;;5.60;4.93;;;9.50;1.00;;;;;;5091701;27;20467;-73
2024/04/03 05:15:31;;;;;;;5.53;5.03;;;9.50;1.00;;;;;;5106097;27;21357;-74
2024/04/03 05:18:00;;;;;;;6.17;4.97;;;9.40;1.00;;;;;;5109485;27;20458;-73
2024/04/03 05:20:27;;;;;;;5.97;4.40;;;9.40;1.00;;;;;;5103901;27;20575;-76
2024/04/03 05:22:56;;;;;;;6.60;4.80;;;9.40;1.00;;;;;;5084870;27;21404;-73
2024/04/03 05:25:22;;;;;;;4.53;4.10;;;9.40;1.00;;;;;;5082130;28;21794;-73
2024/04/03 05:27:49;;;;;;;4.53;3.80;;;9.40;1.00;;;;;;5093370;27;21230;-73
2024/04/03 05:30:15;;;;;;;4.33;3.90;;;9.40;1.00;;;;;;5083940;27;20455;-74
2024/04/03 05:32:42;;;;;;;6.07;4.30;;;9.50;1.00;;;;;;5081958;27;20459;-76
2024/04/03 05:35:08;;;;;;;4.23;3.83;;;9.50;1.00;;;;;;5084419;28;20940;-72
2024/04/03 05:37:35;;;;;;;7.63;4.93;;;9.50;1.00;;;;;;5086396;28;20452;-73
2024/04/03 05:40:05;;;;;;;4.20;3.33;;;9.50;1.00;;;;;;5078812;27;20495;-73
2024/04/03 05:42:33;;;;;;;5.90;5.30;;;9.60;1.00;;;;;;5094680;27;20478;-72
2024/04/03 05:44:59;;;;;;;5.30;4.20;;;9.50;1.00;;;;;;5084282;27;20531;-73
2024/04/03 05:47:26;;;;;;;5.50;4.87;;;9.50;1.00;;;;;;5083916;28;20478;-73
2024/04/03 05:49:55;;;;;;;8.43;5.30;;;9.50;1.00;;;;;;5084941;27;20588;-72
2024/04/03 05:52:22;;;;;;;6.60;5.50;;;9.60;1.00;;;;;;5086422;28;20882;-74
2024/04/03 05:54:48;;;;;;;6.07;5.47;;;9.60;1.00;;;;;;5083150;28;20565;-73
2024/04/03 05:57:17;;;;;;;6.70;5.77;;;9.60;1.00;;;;;;5082272;27;20451;-73
2024/04/03 05:59:44;;;;;;;8.90;6.43;;;9.70;1.00;;;;;;5076842;28;20501;-72
2024/04/03 06:02:12;;;;;;;6.40;4.90;;;9.80;1.00;;;;;;5100466;27;20469;-72
2024/04/03 06:04:38;;;;;;;8.40;6.27;;;10.00;1.00;;;;;;5102568;27;20482;-74
2024/04/03 06:07:06;;;;;;;6.50;4.87;;;10.10;1.00;;;;;;5103776;27;20472;-74
2024/04/03 06:09:32;;;;;;;6.63;4.77;;;10.20;1.00;;;;;;5105148;27;20450;-73
2024/04/03 06:11:59;;;;;;;7.73;6.17;;;10.20;1.00;;;;;;5105873;27;20461;-75
2024/04/03 06:14:27;;;;;;;5.50;5.00;;;10.20;1.00;;;;;;5096581;27;20495;-75
2024/04/03 06:16:54;;;;;;;6.33;5.03;;;10.20;1.00;;;;;;5104445;27;20454;-73
2024/04/03 06:19:19;;;;;;;5.63;5.03;;;10.20;1.00;;;;;;5103956;27;20500;-74
2024/04/03 06:21:47;;;;;;;6.43;5.03;;;10.30;1.00;;;;;;5104080;27;20534;-74
2024/04/03 06:24:13;;;;;;;8.60;5.40;;;10.30;1.00;;;;;;5106425;27;20920;-73
2024/04/03 06:26:42;;;;;;;6.27;5.20;;;10.40;1.00;;;;;;5102068;27;20532;-73
2024/04/03 06:29:09;;;;;;;7.80;5.50;;;10.60;1.00;;;;;;5104327;27;20478;-73
2024/04/03 06:31:37;;;;;;;7.50;5.23;;;10.70;1.00;;;;;;5093348;27;20445;-73
2024/04/03 06:34:09;;;;;;;7.70;5.37;;;10.80;1.00;;;;;;5101911;27;20557;-69
2024/04/03 06:36:37;;;;;;;5.23;4.73;;;10.80;1.00;;;;;;5104539;27;20666;-73
2024/04/03 06:39:04;;;;;;;5.47;4.90;;;10.70;1.00;;;;;;5101585;27;20553;-72
2024/04/03 06:41:30;;;;;;;6.27;5.30;;;10.70;1.00;;;;;;5092809;27;20501;-70
2024/04/03 06:43:57;;;;;;;7.53;5.10;;;10.80;1.00;;;;;;5089491;27;20479;-72
2024/04/03 06:46:26;;;;;;;9.53;7.20;;;10.70;1.00;;;;;;5085417;27;20441;-71
2024/04/03 06:48:54;;;;;;;6.90;4.47;;;10.70;1.00;;;;;;5084509;27;20474;-76
2024/04/03 06:51:21;;;;;;;7.50;5.50;;;10.70;1.00;;;;;;5092069;27;20464;-74
2024/04/03 06:53:49;;;;;;;43.27;13.17;;;10.80;1.00;;;;;;5102680;27;20565;-72
2024/04/03 06:56:15;;;;;;;9.63;6.23;;;10.90;1.00;;;;;;5103396;27;20936;-70
2024/04/03 06:58:43;;;;;;;7.20;4.83;;;10.90;1.00;;;;;;5100878;27;20452;-72
2024/04/03 07:01:11;;;;;;;30.23;9.63;;;10.90;1.00;;;;;;5101285;27;20462;-72
2024/04/03 07:03:38;;;;;;;5.23;4.17;;;10.90;1.00;;;;;;5105753;27;20481;-74
2024/04/03 07:06:06;;;;;;;5.33;4.00;;;10.90;1.00;;;;;;5084995;27;20455;-72
2024/04/03 07:08:33;;;;;;;6.00;5.30;;;10.90;1.00;;;;;;5091490;27;20866;-74
2024/04/03 07:11:04;;;;;;;5.97;4.40;;;10.90;1.00;;;;;;5103293;27;20561;-72
2024/04/03 07:13:31;;;;;;;5.37;4.77;;;10.90;1.00;;;;;;5104607;27;20926;-70
2024/04/03 07:15:58;;;;;;;5.30;4.10;;;10.90;1.00;;;;;;5106379;27;20536;-70
2024/04/03 07:18:25;;;;;;;5.10;4.60;;;11.00;1.00;;;;;;5094778;27;20511;-73
2024/04/03 07:20:55;;;;;;;5.23;4.40;;;11.00;1.00;;;;;;5083388;28;20501;-71
2024/04/03 07:23:26;;;;;;;5.13;4.23;;;11.10;1.00;;;;;;5087066;27;20470;-71
2024/04/03 07:25:53;;;;;;;7.53;5.20;;;11.10;1.00;;;;;;5085187;28;20872;-71
2024/04/03 07:28:20;;;;;;;7.90;5.60;;;11.10;1.00;;;;;;5083369;27;20573;-71
2024/04/03 07:30:46;;;;;;;5.50;5.00;;;11.00;1.00;;;;;;5081138;27;20572;-74
2024/04/03 07:33:13;;;;;;;6.63;5.80;;;11.00;1.00;;;;;;5083543;27;21045;-71
2024/04/03 07:35:39;;;;;;;8.10;7.17;;;11.00;1.00;;;;;;5090132;27;20980;-73
2024/04/03 07:38:06;;;;;;;7.50;6.70;;;11.00;1.00;;;;;;5103161;27;20465;-73
2024/04/03 07:40:35;;;;;;;8.00;6.23;;;11.00;1.00;;;;;;5104961;27;20898;-74
2024/04/03 07:43:02;;;;;;;9.93;7.73;;;11.10;1.00;;;;;;5103083;27;20520;-74
2024/04/03 07:45:28;;;;;;;7.30;6.67;;;11.20;1.00;;;;;;5113032;27;20477;-75
2024/04/03 07:47:57;;;;;;;6.90;6.23;;;11.20;1.00;;;;;;5099292;27;20958;-73
2024/04/03 07:50:22;;;;;;;7.00;6.10;;;11.20;1.00;;;;;;5088607;27;20449;-74
2024/04/03 07:52:49;;;;;;;7.83;6.63;;;11.20;1.00;;;;;;5105555;27;20494;-73
2024/04/03 07:55:15;;;;;;;7.93;6.40;;;11.30;1.00;;;;;;5104895;27;20557;-72
2024/04/03 07:57:44;;;;;;;7.40;5.97;;;11.40;1.00;;;;;;5088571;27;20489;-74
2024/04/03 08:00:10;;;;;;;9.33;6.93;;;11.40;1.00;;;;;;5080145;27;20923;-74
2024/04/03 08:02:40;;;;;;;7.90;6.43;;;11.40;1.00;;;;;;5082194;28;21008;-72
2024/04/03 08:05:07;;;;;;;7.10;6.43;;;11.50;1.00;;;;;;5079525;27;20469;-73
2024/04/03 08:07:35;;;;;;;7.77;6.00;;;11.70;1.00;;;;;;5079182;27;20519;-73
2024/04/03 08:10:01;;;;;;;7.23;6.50;;;11.70;1.00;;;;;;5080442;27;21274;-73
2024/04/03 08:12:28;;;;;;;6.90;6.20;;;11.80;1.00;;;;;;5082500;27;21244;-74
2024/04/03 08:14:58;;;;;;;8.20;7.05;;;12.00;1.00;;;;;;5080098;27;20420;-73
2024/04/03 08:17:25;;;;;;;8.50;7.40;;;12.10;1.00;;;;;;5081625;27;20238;-75
2024/04/03 08:19:51;;;;;;;9.53;5.63;;;12.20;1.00;;;;;;5085262;28;20471;-74
2024/04/03 08:22:19;;;;;;;6.50;5.90;;;12.30;1.00;;;;;;5084148;27;20447;-74
2024/04/03 08:24:46;;;;;;;8.60;7.17;;;12.50;1.00;;;;;;5093072;27;20463;-75
2024/04/03 08:27:13;;;;;;;6.03;5.43;;;12.80;1.00;;;;;;5092529;27;20601;-76
2024/04/03 08:29:42;;;;;;;9.73;6.60;;;13.00;1.00;;;;;;5087854;27;20504;-74
2024/04/03 08:32:11;;;;;;;13.40;6.90;;;13.20;1.00;;;;;;5093753;27;20484;-74
2024/04/03 08:34:37;;;;;;;12.00;7.00;;;13.20;1.00;;;;;;5108894;27;20472;-73
2024/04/03 08:37:05;;;;;;;9.97;6.87;;;13.30;1.00;;;;;;5108282;27;20470;-73
2024/04/03 08:39:31;;;;;;;9.80;6.57;;;13.60;1.00;;;;;;5105343;27;20461;-76
2024/04/03 08:42:00;;;;;;;12.60;6.23;;;14.00;1.00;;;;;;5107998;27;20487;-74
2024/04/03 08:44:28;;;;;;;20.50;10.57;;;14.30;1.00;;;;;;5107692;27;20459;-72
2024/04/03 08:46:55;;;;;;;9.27;6.40;;;14.30;1.00;;;;;;5106374;27;20963;-71
2024/04/03 08:49:28;;;;;;;7.30;5.90;;;14.40;1.00;;;;;;5088865;27;20548;-75
2024/04/03 08:52:02;;;;;;;8.47;5.87;;;14.60;1.00;;;;;;5104148;27;20504;-75
2024/04/03 08:54:29;;;;;;;8.90;5.40;;;14.80;1.00;;;;;;5107624;27;20452;-72
2024/04/03 08:56:57;;;;;;;9.40;6.83;;;15.10;1.00;;;;;;5104340;27;20548;-73
2024/04/03 08:59:23;;;;;;;9.80;6.27;;;15.20;1.00;;;;;;5104742;27;20472;-73
2024/04/03 09:01:50;;;;;;;6.40;5.00;;;15.30;1.00;;;;;;5107952;27;20484;-72
2024/04/03 09:04:17;;;;;;;26.33;8.97;;;15.30;1.00;;;;;;5105882;27;21127;-73
2024/04/03 09:06:46;;;;;;;10.57;5.90;;;15.40;1.00;;;;;;5103010;27;20483;-74
2024/04/03 09:09:16;;;;;;;10.07;6.50;;;15.30;1.00;;;;;;5103367;27;20458;-73
2024/04/03 09:11:43;;;;;;;9.63;5.90;;;15.10;1.00;;;;;;5106530;27;20476;-71
2024/04/03 09:14:10;;;;;;;9.93;6.60;;;14.90;1.00;;;;;;5104320;27;20534;-71
2024/04/03 09:16:36;;;;;;;12.40;7.50;;;14.80;1.00;;;;;;5099651;27;20880;-72
2024/04/03 09:19:05;;;;;;;12.77;6.90;;;14.90;1.00;;;;;;5080666;28;20461;-74
2024/04/03 09:21:32;;;;;;;9.40;7.00;;;15.00;1.00;;;;;;5084042;28;20487;-73
2024/04/03 09:23:59;;;;;;;18.57;9.57;;;15.10;1.00;;;;;;5081111;27;20928;-73
2024/04/03 09:26:26;;;;;;;17.37;8.60;;;15.20;1.00;;;;;;5094670;27;20490;-73
2024/04/03 09:28:59;;;;;;;7.93;6.70;;;15.40;1.00;;;;;;5081326;28;20472;-73
2024/04/03 09:31:26;;;;;;;14.17;7.70;;;15.40;1.00;;;;;;5077856;27;20465;-74
2024/04/03 09:33:53;;;;;;;18.87;8.20;;;15.50;1.00;;;;;;5085104;27;20486;-74
2024/04/03 09:36:22;;;;;;;6.80;6.20;;;15.50;1.00;;;;;;5081518;27;21497;-73
2024/04/03 09:38:48;;;;;;;7.43;6.60;;;15.40;1.00;;;;;;5091080;27;20493;-74
2024/04/03 09:41:19;;;;;;;16.53;7.90;;;15.50;1.00;;;;;;5086609;27;21114;-74
2024/04/03 09:43:46;;;;;;;30.83;9.13;;;15.60;1.00;;;;;;5084829;27;20512;-74
2024/04/03 09:46:14;;;;;;;7.73;5.83;;;15.80;1.00;;;;;;5089376;27;20471;-74
2024/04/03 09:48:41;;;;;;;8.83;5.50;;;16.00;1.00;;;;;;5081529;27;20939;-74
2024/04/03 09:51:09;;;;;;;7.97;5.60;;;16.00;1.00;;;;;;5105088;27;20973;-74
2024/04/03 09:53:36;;;;;;;21.00;7.60;;;16.00;1.00;;;;;;5106588;27;20464;-72
2024/04/03 09:56:04;;;;;;;8.50;5.90;;;16.10;1.00;;;;;;5104606;27;20434;-73
2024/04/03 09:58:36;;;;;;;8.10;5.73;;;16.10;1.00;;;;;;5101516;27;20501;-73
2024/04/03 10:01:05;;;;;;;6.10;5.50;;;15.90;1.00;;;;;;5100365;27;20437;-75
2024/04/03 10:03:34;;;;;;;10.90;6.90;;;16.00;1.00;;;;;;5101135;27;20477;-74
2024/04/03 10:06:03;;;;;;;9.37;7.50;;;16.40;1.00;;;;;;5102735;27;20459;-74
2024/04/03 10:08:34;;;;;;;8.50;5.07;;;16.70;1.00;;;;;;5101068;27;21927;-73
2024/04/03 10:11:06;;;;;;;8.27;6.57;;;16.80;1.00;;;;;;5100864;27;20933;-74
2024/04/03 10:13:33;;;;;;;7.23;6.30;;;16.90;1.00;;;;;;5099317;27;20461;-74
2024/04/03 10:16:02;;;;;;;14.40;6.60;;;16.90;1.00;;;;;;5099060;27;20545;-72
2024/04/03 10:18:28;;;;;;;10.03;6.70;;;16.90;1.00;;;;;;5078930;27;20455;-73
2024/04/03 10:20:57;;;;;;;9.63;6.13;;;17.00;1.00;;;;;;5084791;27;20489;-74
2024/04/03 10:23:24;;;;;;;10.80;6.97;;;17.10;1.00;;;;;;5094069;27;20544;-74
2024/04/03 10:25:52;;;;;;;6.37;5.03;;;17.00;1.00;;;;;;5082069;28;20466;-73
2024/04/03 10:28:21;;;;;;;7.70;6.43;;;16.80;1.00;;;;;;5090563;27;20426;-74
2024/04/03 10:30:55;;;;;;;8.13;5.80;;;16.60;1.00;;;;;;5104806;27;20437;-74
2024/04/03 10:33:22;;;;;;;16.47;8.10;;;16.40;1.00;;;;;;5104925;27;20453;-74
2024/04/03 10:35:50;;;;;;;7.53;6.60;;;16.40;1.00;;;;;;5103835;27;20458;-74
2024/04/03 10:38:16;;;;;;;6.17;5.57;;;16.50;1.00;;;;;;5097458;27;20466;-72
2024/04/03 10:40:44;;;;;;;6.30;5.70;;;16.60;1.00;;;;;;5106953;27;20470;-73
2024/04/03 10:43:10;;;;;;;8.67;6.23;;;16.50;1.00;;;;;;5102574;27;20560;-76
2024/04/03 10:45:37;;;;;;;8.50;5.80;;;16.40;1.00;;;;;;5083157;28;20925;-73
2024/04/03 10:48:08;;;;;;;8.67;6.57;;;16.20;1.00;;;;;;5079482;28;20471;-73
2024/04/03 10:50:38;;;;;;;8.50;7.07;;;16.20;1.00;;;;;;5079953;28;20496;-73
2024/04/03 10:53:09;;;;;;;10.17;6.93;;;16.20;1.00;;;;;;5081746;27;20971;-74
2024/04/03 10:55:36;;;;;;;12.53;6.10;;;16.20;1.00;;;;;;5081942;27;20953;-72
2024/04/03 10:58:03;;;;;;;7.93;6.43;;;16.30;1.00;;;;;;5084955;28;20471;-74
2024/04/03 11:00:33;;;;;;;6.73;6.03;;;16.40;1.00;;;;;;5083592;27;20473;-72
2024/04/03 11:03:01;;;;;;;7.03;6.40;;;16.40;1.00;;;;;;5084507;27;20542;-75
2024/04/03 11:05:28;;;;;;;7.63;6.80;;;16.20;1.00;;;;;;5082562;27;20983;-73
2024/04/03 11:08:00;;;;;;;8.33;6.30;;;16.00;1.00;;;;;;5090977;27;20469;-72
2024/04/03 11:10:28;;;;;;;35.13;27.53;;;15.80;1.00;;;;;;5085304;27;20452;-73
2024/04/03 11:13:02;;;;;;;6.23;5.13;;;15.40;1.00;;;;;;5099758;27;20556;-72
2024/04/03 11:15:30;;;;;;;7.43;5.57;;;15.10;1.00;;;;;;5106340;27;20447;-74
2024/04/03 11:17:56;;;;;;;6.73;4.60;;;14.70;1.00;;;;;;5106738;27;20459;-73
2024/04/03 11:20:25;;;;;;;6.63;5.83;;;14.50;1.00;;;;;;5094657;27;20455;-73
2024/04/03 11:22:52;;;;;;;8.27;6.10;;;14.40;1.00;;;;;;5104030;27;20463;-74
2024/04/03 11:25:21;;;;;;;9.33;6.13;;;14.20;1.00;;;;;;5102606;27;20457;-71
2024/04/03 11:27:48;;;;;;;7.90;6.40;;;14.10;1.00;;;;;;5102375;27;20410;-71
2024/04/03 11:30:15;;;;;;;8.07;5.77;;;14.00;1.00;;;;;;5098365;27;20488;-71
2024/04/03 11:32:45;;;;;;;8.90;6.00;;;13.80;1.00;;;;;;5100250;27;20460;-73
2024/04/03 11:35:12;;;;;;;6.70;5.50;;;13.80;1.00;;;;;;5100603;27;20476;-71
2024/04/03 11:37:38;;;;;;;7.60;5.03;;;13.70;1.00;;;;;;5102086;27;20459;-71
2024/04/03 11:40:07;;;;;;;7.73;6.23;;;13.60;1.00;;;;;;5100668;27;20460;-72
2024/04/03 11:42:35;;;;;;;5.60;5.10;;;13.40;1.00;;;;;;5099010;27;22255;-72
2024/04/03 11:45:04;;;;;;;6.60;5.53;;;13.30;1.00;;;;;;5100305;27;20463;-72
2024/04/03 11:47:30;;;;;;;7.17;5.77;;;13.20;1.00;;;;;;5099736;27;20588;-72
2024/04/03 11:49:57;;;;;;;7.47;6.13;;;13.10;1.00;;;;;;5101967;27;20605;-71
2024/04/03 11:52:23;;;;;;;11.30;6.63;;;13.10;1.00;;;;;;5102738;27;21167;-71
2024/04/03 11:54:50;;;;;;;7.60;6.27;;;13.20;1.00;;;;;;5105366;27;21168;-74
2024/04/03 11:57:16;;;;;;;9.30;7.63;;;13.20;1.00;;;;;;5103236;27;20502;-71
2024/04/03 11:59:46;;;;;;;9.73;6.27;;;13.10;1.00;;;;;;5103786;27;20467;-72
2024/04/03 12:02:12;;;;;;;6.73;6.17;;;13.10;1.00;;;;;;5100997;27;20460;-71
2024/04/03 12:04:39;;;;;;;7.77;6.67;;;13.10;1.00;;;;;;5105196;27;20528;-71
2024/04/03 12:07:05;;;;;;;8.10;7.30;;;13.20;1.00;;;;;;5105237;27;20542;-72
2024/04/03 12:09:32;;;;;;;11.43;8.97;;;13.20;1.00;;;;;;5098959;27;20460;-71
2024/04/03 12:11:59;;;;;;;8.33;7.07;;;13.20;1.00;;;;;;5085709;27;20461;-70
2024/04/03 12:14:26;;;;;;;8.03;7.23;;;13.10;1.00;;;;;;5086989;27;21112;-70
2024/04/03 12:16:55;;;;;;;7.40;6.60;;;13.10;1.00;;;;;;5096267;27;20863;-72
2024/04/03 12:19:29;;;;;;;11.17;8.40;;;13.00;1.00;;;;;;5087916;27;20550;-70
2024/04/03 12:21:55;;;;;;;10.20;8.43;;;13.00;1.00;;;;;;5083449;28;20463;-69
2024/04/03 12:24:22;;;;;;;9.57;6.60;;;13.00;1.00;;;;;;5079621;27;20849;-70
2024/04/03 12:26:48;;;;;;;10.10;9.17;;;13.00;1.00;;;;;;5081473;28;20461;-72
2024/04/03 12:29:16;;;;;;;10.80;7.63;;;13.10;1.00;;;;;;5103728;27;20483;-69
2024/04/03 12:31:42;;;;;;;15.33;8.90;;;13.10;1.00;;;;;;5095754;27;20476;-70
2024/04/03 12:34:11;;;;;;;12.30;7.37;;;13.20;1.00;;;;;;5103873;27;21239;-72
2024/04/03 12:36:37;;;;;;;9.67;8.20;;;13.30;1.00;;;;;;5105678;27;20882;-75
2024/04/03 12:39:04;;;;;;;7.83;6.43;;;13.20;1.00;;;;;;5105375;27;20482;-73
2024/04/03 12:41:30;;;;;;;14.10;10.77;;;13.10;1.00;;;;;;5106459;27;20451;-74
2024/04/03 12:43:57;;;;;;;10.20;8.20;;;13.10;1.00;;;;;;5102739;27;20464;-74
2024/04/03 12:46:24;;;;;;;12.77;8.77;;;13.20;1.00;;;;;;5100304;27;20478;-73
2024/04/03 12:48:50;;;;;;;10.00;8.20;;;13.20;1.00;;;;;;5086397;28;20464;-74
2024/04/03 12:51:18;;;;;;;9.53;8.47;;;13.20;1.00;;;;;;5092189;27;21024;-75
2024/04/03 12:53:45;;;;;;;12.43;8.70;;;13.20;1.00;;;;;;5085125;27;20460;-74
2024/04/03 12:56:11;;;;;;;16.47;9.10;;;13.20;1.00;;;;;;5083562;27;20466;-74
2024/04/03 12:58:37;;;;;;;8.43;7.43;;;13.20;1.00;;;;;;5079277;28;20535;-75
2024/04/03 13:01:05;;;;;;;10.53;8.23;;;13.30;1.00;;;;;;5079819;27;20477;-72
2024/04/03 13:03:33;;;;;;;10.40;7.70;;;13.30;1.00;;;;;;5079106;27;20580;-73